GMTN/TTU METAR and TAF weather

Enter ICAO airport designator
Station Type Date Time Source
GMTN METAR 2021/04/13 22:00 UTC NOAA

GMTN 132200Z 09011KT 6000 BKN012 SCT020 16/15 Q1019 NOSIG


Station Type Date Time Source
GMTN Decoded METAR 2021/04/13 22:00 UTC NOAA

Tetuan / Sania Ramel, Morocco (GMTN) 35-35N 005-20W 10M
Apr 13, 2021 - 06:00 PM EDT / 2021.04.13 2200 UTC
Wind: from the E (090 degrees) at 13 MPH (11 KT):0
Visibility: 3 mile(s):0
Sky conditions: mostly cloudy
Temperature: 60 F (16 C)
Dew Point: 59 F (15 C)
Relative Humidity: 93%
Pressure (altimeter): 30.09 in. Hg (1019 hPa)
ob: GMTN 132200Z 09011KT 6000 BKN012 SCT020 16/15 Q1019 NOSIG
cycle: 22

Station Type Date Time Source
GMTN TAF UTC NOAA

Error!

Example: see airport list